Time;durP1;ratioP1;P1;durP2;ratioP2;P2;SDS_P1;SDS_P2;PMS_P1;PMS_P2;Temp;Humidity;BMP_temperature;BMP_pressure;BME280_temperature;BME280_humidity;BME280_pressure;Samples;Min_cycle;Max_cycle;Signal;HPM_P1;HPM_P2
2022/06/27 00:01:53;;;;;;;1.20;0.80;;;19.30;99.90;;;;;;5054954;28;20182;-70
2022/06/27 00:04:18;;;;;;;1.33;0.97;;;19.30;99.90;;;;;;5054598;28;20184;-69
2022/06/27 00:06:44;;;;;;;1.10;0.87;;;19.30;99.90;;;;;;5054815;28;20179;-69
2022/06/27 00:09:09;;;;;;;1.33;1.00;;;19.20;99.90;;;;;;5067971;28;20240;-71
2022/06/27 00:11:35;;;;;;;1.07;0.97;;;19.20;99.90;;;;;;5074679;28;20549;-69
2022/06/27 00:14:01;;;;;;;1.70;1.00;;;19.20;99.90;;;;;;5073522;28;20551;-68
2022/06/27 00:16:26;;;;;;;1.00;0.87;;;19.20;99.90;;;;;;5074223;28;20580;-69
2022/06/27 00:18:52;;;;;;;1.20;1.00;;;19.20;99.90;;;;;;5063111;28;20198;-70
2022/06/27 00:21:17;;;;;;;1.40;1.00;;;19.20;99.90;;;;;;5054512;28;20159;-68
2022/06/27 00:23:44;;;;;;;1.10;0.90;;;19.20;99.90;;;;;;5054326;28;20166;-69
2022/06/27 00:26:09;;;;;;;1.03;0.90;;;19.20;99.90;;;;;;5054149;28;20195;-70
2022/06/27 00:28:35;;;;;;;1.00;0.90;;;19.20;99.90;;;;;;5062694;28;20858;-71
2022/06/27 00:31:01;;;;;;;1.30;1.03;;;19.20;99.90;;;;;;5074345;28;20174;-69
2022/06/27 00:33:26;;;;;;;1.37;1.27;;;19.20;99.90;;;;;;5074297;28;20174;-70
2022/06/27 00:35:53;;;;;;;1.30;0.90;;;19.10;99.90;;;;;;5074113;28;20167;-68
2022/06/27 00:38:19;;;;;;;1.73;1.00;;;19.10;99.90;;;;;;5067804;28;20215;-70
2022/06/27 00:40:44;;;;;;;1.20;1.10;;;19.10;99.90;;;;;;5054539;28;20482;-70
2022/06/27 00:43:10;;;;;;;0.93;0.77;;;19.10;99.90;;;;;;5054315;28;20297;-68
2022/06/27 00:45:35;;;;;;;1.10;0.90;;;19.10;99.90;;;;;;5053908;28;20171;-69
2022/06/27 00:48:01;;;;;;;1.00;0.70;;;19.10;99.90;;;;;;5061600;28;20597;-69
2022/06/27 00:50:27;;;;;;;1.00;0.90;;;19.10;99.90;;;;;;5074215;28;20513;-70
2022/06/27 00:52:52;;;;;;;1.20;0.80;;;19.10;99.90;;;;;;5072782;28;20641;-68
2022/06/27 00:55:18;;;;;;;1.10;1.00;;;19.10;99.90;;;;;;5072596;28;20210;-68
2022/06/27 00:57:44;;;;;;;1.03;0.83;;;19.10;99.90;;;;;;5072105;28;20315;-68
2022/06/27 01:00:10;;;;;;;1.10;0.90;;;19.10;99.90;;;;;;5074282;28;20249;-69
2022/06/27 01:02:36;;;;;;;1.10;0.90;;;19.10;99.90;;;;;;5053933;28;20453;-69
2022/06/27 01:05:02;;;;;;;1.60;1.43;;;19.10;99.90;;;;;;5054047;28;20931;-69
2022/06/27 01:07:28;;;;;;;1.40;1.30;;;19.10;99.90;;;;;;5056187;28;20465;-69
2022/06/27 01:09:53;;;;;;;1.20;1.00;;;19.00;99.90;;;;;;5076079;28;20523;-70
2022/06/27 01:12:20;;;;;;;1.13;0.97;;;19.00;99.90;;;;;;5075705;28;20633;-72
2022/06/27 01:14:46;;;;;;;2.03;1.07;;;19.00;99.90;;;;;;5074084;28;20539;-71
2022/06/27 01:17:11;;;;;;;2.57;1.20;;;19.00;99.90;;;;;;5074539;28;21023;-72
2022/06/27 01:19:37;;;;;;;2.90;1.37;;;19.00;99.90;;;;;;5052750;28;20764;-69
2022/06/27 01:22:21;;;;;;;1.83;1.27;;;19.00;99.90;;;;;;5053723;28;20175;-69
2022/06/27 01:24:46;;;;;;;1.23;1.13;;;19.00;99.90;;;;;;5053041;28;20185;-69
2022/06/27 01:27:12;;;;;;;1.93;1.43;;;19.00;99.90;;;;;;5053474;28;20511;-70
2022/06/27 01:29:38;;;;;;;1.90;1.60;;;18.90;99.90;;;;;;5071752;28;20178;-71
2022/06/27 01:32:04;;;;;;;1.50;1.40;;;18.90;99.90;;;;;;5073436;28;20178;-69
2022/06/27 01:34:30;;;;;;;1.50;1.23;;;18.90;99.90;;;;;;5072997;28;20190;-70
2022/06/27 01:36:56;;;;;;;2.67;1.70;;;18.90;99.90;;;;;;5073053;28;20434;-71
2022/06/27 01:39:23;;;;;;;7.73;1.70;;;18.90;99.90;;;;;;5072552;28;20174;-69
2022/06/27 01:41:58;;;;;;;1.50;1.40;;;18.90;99.90;;;;;;5073320;28;20253;-68
2022/06/27 01:44:29;;;;;;;2.50;1.83;;;18.90;99.90;;;;;;5071767;28;20469;-68
2022/06/27 01:47:05;;;;;;;1.43;1.33;;;18.90;99.90;;;;;;5071692;28;20424;-71
2022/06/27 01:49:32;;;;;;;1.20;1.10;;;18.90;99.90;;;;;;5053766;28;20480;-70
2022/06/27 01:52:00;;;;;;;1.30;1.10;;;18.90;99.90;;;;;;5053040;28;20429;-69
2022/06/27 01:54:27;;;;;;;4.50;1.10;;;18.90;99.90;;;;;;5052574;28;20987;-71
2022/06/27 01:56:53;;;;;;;1.50;1.33;;;18.90;99.90;;;;;;5052970;28;20405;-70
2022/06/27 01:59:21;;;;;;;1.20;1.10;;;18.90;99.90;;;;;;5053163;28;20792;-71
2022/06/27 02:01:47;;;;;;;1.93;1.50;;;18.90;99.90;;;;;;5051520;28;20258;-69
2022/06/27 02:04:13;;;;;;;1.33;1.07;;;18.90;99.90;;;;;;5052602;28;20512;-73
2022/06/27 02:06:41;;;;;;;1.43;1.13;;;18.90;99.90;;;;;;5052662;28;20171;-69
2022/06/27 02:09:09;;;;;;;1.47;1.33;;;18.90;99.90;;;;;;5053053;28;20480;-69
2022/06/27 02:11:37;;;;;;;1.33;1.23;;;18.90;99.90;;;;;;5051387;28;20409;-71
2022/06/27 02:14:03;;;;;;;1.30;1.17;;;18.90;99.90;;;;;;5052516;28;20525;-72
2022/06/27 02:16:29;;;;;;;1.63;1.20;;;18.90;99.90;;;;;;5052379;28;20401;-73
2022/06/27 02:18:54;;;;;;;2.90;1.57;;;18.90;99.90;;;;;;5064711;28;20459;-70
2022/06/27 02:21:23;;;;;;;1.63;1.53;;;18.90;99.90;;;;;;5072419;28;20185;-70
2022/06/27 02:23:49;;;;;;;2.73;1.50;;;18.90;99.90;;;;;;5072476;28;20166;-70
2022/06/27 02:26:16;;;;;;;1.83;1.63;;;18.90;99.90;;;;;;5072245;28;20408;-70
2022/06/27 02:28:42;;;;;;;1.70;1.10;;;18.90;99.90;;;;;;5062148;28;20441;-71
2022/06/27 02:31:09;;;;;;;1.43;1.30;;;18.90;99.90;;;;;;5052559;28;20775;-70
2022/06/27 02:33:36;;;;;;;1.90;1.43;;;18.90;99.90;;;;;;5052365;28;20815;-68
2022/06/27 02:36:07;;;;;;;1.30;1.20;;;18.90;99.90;;;;;;5051266;28;20519;-71
2022/06/27 02:38:34;;;;;;;1.53;1.43;;;18.90;99.90;;;;;;5052463;28;20891;-68
2022/06/27 02:41:04;;;;;;;1.43;1.33;;;18.90;99.90;;;;;;5052111;28;20445;-69
2022/06/27 02:43:32;;;;;;;1.30;1.13;;;18.90;99.90;;;;;;5052087;28;20390;-72
2022/06/27 02:45:58;;;;;;;1.60;1.20;;;18.90;99.90;;;;;;5051837;28;20941;-71
2022/06/27 02:48:25;;;;;;;2.00;1.50;;;18.90;99.90;;;;;;5051914;28;20428;-69
2022/06/27 02:51:05;;;;;;;1.60;1.40;;;18.90;99.90;;;;;;5052057;28;20163;-70
2022/06/27 02:53:40;;;;;;;1.70;1.60;;;18.90;99.90;;;;;;5051850;28;20765;-69
2022/06/27 02:56:10;;;;;;;1.50;1.40;;;18.90;99.90;;;;;;5051837;28;20493;-69
2022/06/27 02:59:06;;;;;;;3.50;1.50;;;18.90;99.90;;;;;;5059997;28;20420;-69
2022/06/27 03:01:33;;;;;;;1.70;1.50;;;18.90;99.90;;;;;;5072035;28;20746;-69
2022/06/27 03:04:00;;;;;;;1.50;1.10;;;18.80;99.90;;;;;;5070613;28;20409;-73
2022/06/27 03:06:26;;;;;;;2.10;1.40;;;18.90;99.90;;;;;;5071627;28;20402;-69
2022/06/27 03:08:52;;;;;;;2.93;1.30;;;18.80;99.90;;;;;;5071544;28;20439;-70
2022/06/27 03:11:20;;;;;;;1.73;1.40;;;18.90;99.90;;;;;;5071853;28;20400;-69
2022/06/27 03:13:46;;;;;;;1.27;1.10;;;18.90;99.90;;;;;;5071873;28;20214;-68
2022/06/27 03:16:13;;;;;;;1.57;1.23;;;18.90;99.90;;;;;;5071574;28;20436;-68
2022/06/27 03:18:40;;;;;;;2.00;1.70;;;18.90;99.90;;;;;;5063105;28;20480;-70
2022/06/27 03:21:05;;;;;;;1.30;1.13;;;18.90;99.90;;;;;;5051710;28;20463;-69
2022/06/27 03:23:31;;;;;;;1.80;1.30;;;18.90;99.90;;;;;;5051696;28;20402;-71
2022/06/27 03:25:57;;;;;;;1.50;1.40;;;18.90;99.90;;;;;;5051522;28;20191;-69
2022/06/27 03:28:23;;;;;;;2.03;1.10;;;18.90;99.90;;;;;;5057209;28;20703;-69
2022/06/27 03:30:48;;;;;;;1.73;1.00;;;18.90;99.90;;;;;;5071709;28;20249;-69
2022/06/27 03:33:14;;;;;;;1.50;1.20;;;18.90;99.90;;;;;;5071777;28;20436;-69
2022/06/27 03:35:41;;;;;;;1.47;1.03;;;18.90;99.90;;;;;;5071297;28;20447;-70
2022/06/27 03:38:06;;;;;;;1.10;1.00;;;18.90;99.90;;;;;;5070822;28;20279;-69
2022/06/27 03:40:32;;;;;;;1.57;1.10;;;18.90;99.90;;;;;;5071491;28;20451;-69
2022/06/27 03:42:58;;;;;;;1.50;1.10;;;18.90;99.90;;;;;;5071597;28;20247;-69
2022/06/27 03:45:23;;;;;;;1.87;1.10;;;18.90;99.90;;;;;;5070090;28;20176;-69
2022/06/27 03:47:50;;;;;;;1.97;1.37;;;18.90;99.90;;;;;;5073326;28;20201;-69
2022/06/27 03:50:17;;;;;;;1.40;1.27;;;18.90;99.90;;;;;;5055182;28;20250;-70
2022/06/27 03:52:43;;;;;;;2.67;1.60;;;19.00;99.90;;;;;;5055082;28;20490;-73
2022/06/27 03:55:10;;;;;;;2.13;1.33;;;18.90;99.90;;;;;;5053795;28;20457;-72
2022/06/27 03:57:37;;;;;;;1.60;1.50;;;19.00;99.90;;;;;;5055255;28;20421;-71
2022/06/27 04:00:08;;;;;;;2.40;1.30;;;18.90;99.90;;;;;;5073010;28;20500;-70
2022/06/27 04:02:36;;;;;;;1.57;1.47;;;19.00;99.90;;;;;;5074920;28;20399;-69
2022/06/27 04:05:03;;;;;;;1.30;1.17;;;19.00;99.90;;;;;;5074347;28;20495;-70
2022/06/27 04:07:29;;;;;;;1.23;0.93;;;19.00;99.90;;;;;;5074872;28;20988;-71
2022/06/27 04:09:55;;;;;;;1.50;1.40;;;19.00;99.90;;;;;;5057589;28;20425;-70
2022/06/27 04:12:21;;;;;;;5.17;1.10;;;19.00;99.90;;;;;;5055103;28;20393;-72
2022/06/27 04:14:47;;;;;;;1.30;1.00;;;19.00;99.90;;;;;;5055042;28;21008;-72
2022/06/27 04:17:12;;;;;;;1.50;0.83;;;19.00;99.90;;;;;;5054873;28;20187;-70
2022/06/27 04:19:38;;;;;;;1.50;1.10;;;19.00;99.90;;;;;;5067902;28;20227;-69
2022/06/27 04:22:04;;;;;;;1.93;1.07;;;19.00;99.90;;;;;;5074573;28;20175;-69
2022/06/27 04:24:29;;;;;;;1.30;1.20;;;19.00;99.90;;;;;;5075235;28;20170;-71
2022/06/27 04:26:55;;;;;;;2.83;1.20;;;19.10;99.90;;;;;;5074236;28;20174;-71
2022/06/27 04:29:21;;;;;;;1.73;1.10;;;19.10;99.90;;;;;;5063496;28;20237;-71
2022/06/27 04:31:47;;;;;;;1.23;0.80;;;19.10;99.90;;;;;;5058101;28;20642;-70
2022/06/27 04:34:12;;;;;;;1.67;1.50;;;19.20;99.90;;;;;;5053978;28;20467;-69
2022/06/27 04:36:39;;;;;;;1.53;1.17;;;19.20;99.90;;;;;;5054189;28;20634;-69
2022/06/27 04:39:06;;;;;;;1.33;0.90;;;19.30;99.90;;;;;;5063430;28;20198;-69
2022/06/27 04:41:32;;;;;;;2.17;1.30;;;19.30;99.90;;;;;;5074185;28;20830;-69
2022/06/27 04:43:58;;;;;;;1.33;1.20;;;19.30;99.90;;;;;;5074114;28;20405;-70
2022/06/27 04:46:23;;;;;;;2.00;1.10;;;19.40;99.90;;;;;;5073851;28;20407;-70
2022/06/27 04:48:49;;;;;;;2.17;1.60;;;19.50;99.90;;;;;;5060029;28;20195;-71
2022/06/27 04:51:15;;;;;;;1.30;1.20;;;19.50;99.90;;;;;;5054042;28;20522;-71
2022/06/27 04:53:41;;;;;;;1.53;1.30;;;19.60;99.90;;;;;;5053817;28;20183;-71
2022/06/27 04:56:08;;;;;;;1.57;1.47;;;19.60;99.90;;;;;;5054285;28;20402;-72
2022/06/27 04:58:34;;;;;;;2.13;1.47;;;19.80;99.90;;;;;;5066730;28;20962;-71
2022/06/27 05:01:00;;;;;;;2.97;1.47;;;19.80;99.90;;;;;;5073618;28;20421;-70
2022/06/27 05:03:26;;;;;;;2.80;1.70;;;19.90;99.90;;;;;;5073709;28;20405;-69
2022/06/27 05:05:52;;;;;;;1.67;1.20;;;20.00;99.90;;;;;;5073531;28;20166;-69
2022/06/27 05:08:18;;;;;;;1.90;1.50;;;20.10;99.90;;;;;;5063906;28;20808;-72
2022/06/27 05:10:43;;;;;;;3.83;1.40;;;20.20;99.90;;;;;;5053773;28;20172;-72
2022/06/27 05:13:09;;;;;;;2.97;1.40;;;20.30;99.90;;;;;;5053530;28;20417;-71
2022/06/27 05:15:37;;;;;;;1.27;1.17;;;20.50;99.90;;;;;;5053279;28;20282;-71
2022/06/27 05:18:03;;;;;;;1.97;1.80;;;20.70;99.90;;;;;;5060332;28;20190;-71
2022/06/27 05:20:30;;;;;;;1.70;1.60;;;20.80;99.90;;;;;;5073428;28;20401;-71
2022/06/27 05:22:56;;;;;;;1.63;1.53;;;20.90;99.90;;;;;;5073431;28;20396;-69
2022/06/27 05:25:22;;;;;;;2.27;1.70;;;21.00;99.90;;;;;;5073134;28;20483;-68
2022/06/27 05:27:48;;;;;;;2.87;2.47;;;21.00;99.90;;;;;;5068136;28;20533;-71
2022/06/27 05:30:15;;;;;;;2.60;1.90;;;21.10;99.90;;;;;;5053303;28;20242;-70
2022/06/27 05:32:41;;;;;;;2.07;1.90;;;21.10;99.90;;;;;;5053181;28;20406;-70
2022/06/27 05:35:08;;;;;;;1.80;1.30;;;21.10;99.90;;;;;;5052849;28;20484;-71
2022/06/27 05:37:35;;;;;;;1.63;1.53;;;21.20;99.90;;;;;;5055683;28;20560;-70
2022/06/27 05:40:03;;;;;;;1.60;1.50;;;21.10;99.90;;;;;;5073025;28;20788;-70
2022/06/27 05:42:28;;;;;;;1.83;1.10;;;21.10;99.90;;;;;;5073329;28;20951;-70
2022/06/27 05:44:55;;;;;;;1.87;1.63;;;21.00;99.90;;;;;;5071389;28;20405;-71
2022/06/27 05:47:21;;;;;;;1.97;1.57;;;21.00;99.90;;;;;;5071710;28;20178;-71
2022/06/27 05:49:47;;;;;;;1.50;1.40;;;20.90;99.90;;;;;;5052874;28;20418;-70
2022/06/27 05:52:13;;;;;;;1.40;1.30;;;20.80;99.90;;;;;;5052898;28;20778;-71
2022/06/27 05:54:39;;;;;;;1.93;1.50;;;20.80;99.90;;;;;;5052299;28;20463;-69
2022/06/27 05:57:05;;;;;;;1.63;1.40;;;20.70;99.90;;;;;;5052688;28;20171;-69
2022/06/27 05:59:33;;;;;;;1.53;1.30;;;20.70;99.90;;;;;;5071297;28;20427;-68
2022/06/27 06:02:00;;;;;;;2.00;1.73;;;20.80;99.90;;;;;;5072635;28;20401;-68
2022/06/27 06:04:26;;;;;;;1.67;1.20;;;20.90;99.90;;;;;;5072179;28;20782;-71
2022/06/27 06:06:52;;;;;;;1.20;0.93;;;21.00;99.90;;;;;;5072332;28;20927;-71
2022/06/27 06:09:18;;;;;;;2.10;1.57;;;21.20;99.90;;;;;;5055641;28;20413;-70
2022/06/27 06:11:48;;;;;;;1.20;1.07;;;21.30;99.90;;;;;;5051694;28;20922;-70
2022/06/27 06:14:16;;;;;;;1.53;1.20;;;21.40;99.90;;;;;;5052127;28;20199;-70
2022/06/27 06:16:42;;;;;;;1.73;1.63;;;21.40;99.90;;;;;;5052379;28;20398;-70
2022/06/27 06:19:09;;;;;;;2.30;2.07;;;21.40;99.90;;;;;;5067284;28;20439;-72
2022/06/27 06:21:34;;;;;;;2.80;1.50;;;21.40;99.90;;;;;;5073396;28;20392;-71
2022/06/27 06:24:00;;;;;;;1.73;1.50;;;21.40;99.90;;;;;;5072348;28;20407;-70
2022/06/27 06:26:26;;;;;;;1.40;1.20;;;21.40;99.90;;;;;;5072000;28;20166;-68
2022/06/27 06:28:53;;;;;;;1.50;1.40;;;21.40;99.90;;;;;;5071507;28;20194;-69
2022/06/27 06:31:22;;;;;;;1.13;1.03;;;21.50;99.90;;;;;;5072258;28;20186;-70
2022/06/27 06:33:53;;;;;;;1.90;1.50;;;21.50;99.90;;;;;;5072402;28;20413;-72
2022/06/27 06:36:21;;;;;;;2.17;1.67;;;21.50;99.90;;;;;;5072637;28;20789;-71
2022/06/27 06:38:47;;;;;;;1.87;1.63;;;21.60;99.90;;;;;;5061664;28;20439;-69
2022/06/27 06:41:12;;;;;;;1.83;1.70;;;21.70;99.90;;;;;;5050844;28;20561;-71
2022/06/27 06:43:38;;;;;;;1.90;1.50;;;21.70;99.90;;;;;;5051900;28;20489;-70
2022/06/27 06:46:04;;;;;;;1.77;1.57;;;21.70;99.90;;;;;;5051851;28;20488;-72
2022/06/27 06:48:30;;;;;;;2.37;2.10;;;21.80;99.90;;;;;;5060032;28;20201;-72
2022/06/27 06:50:56;;;;;;;2.90;2.60;;;21.90;99.90;;;;;;5072345;28;20582;-73
2022/06/27 06:53:22;;;;;;;2.27;2.07;;;22.00;99.90;;;;;;5072023;28;20436;-73
2022/06/27 06:55:48;;;;;;;1.93;1.80;;;22.10;99.90;;;;;;5071681;28;20229;-72
2022/06/27 06:58:14;;;;;;;3.00;2.13;;;22.30;99.90;;;;;;5064722;28;20198;-73
2022/06/27 07:00:39;;;;;;;1.90;1.70;;;22.40;99.90;;;;;;5051936;28;20401;-70
2022/06/27 07:03:07;;;;;;;2.23;1.93;;;22.50;99.90;;;;;;5052172;28;20436;-70
2022/06/27 07:05:34;;;;;;;2.07;1.87;;;22.70;99.90;;;;;;5051659;28;20253;-70
2022/06/27 07:08:00;;;;;;;2.13;1.60;;;22.70;99.90;;;;;;5056459;28;20938;-70
2022/06/27 07:10:26;;;;;;;2.77;1.90;;;22.70;99.90;;;;;;5072052;28;20450;-70
2022/06/27 07:12:52;;;;;;;3.00;2.40;;;22.80;99.90;;;;;;5070903;28;20487;-70
2022/06/27 07:15:18;;;;;;;2.53;2.33;;;22.80;99.90;;;;;;5071429;28;20451;-70
2022/06/27 07:17:46;;;;;;;2.10;1.87;;;22.80;99.90;;;;;;5069610;28;20432;-70
2022/06/27 07:20:13;;;;;;;2.37;1.87;;;22.90;99.90;;;;;;5051679;28;20918;-70
2022/06/27 07:22:41;;;;;;;2.77;2.30;;;23.00;99.90;;;;;;5053641;28;20501;-69
2022/06/27 07:25:07;;;;;;;2.27;1.90;;;23.00;99.90;;;;;;5055375;28;20890;-70
2022/06/27 07:27:34;;;;;;;2.17;1.97;;;23.00;99.90;;;;;;5055723;28;20429;-70
2022/06/27 07:30:04;;;;;;;1.67;1.53;;;23.00;99.90;;;;;;5075720;28;20401;-69
2022/06/27 07:32:31;;;;;;;2.10;1.50;;;23.00;99.90;;;;;;5075474;28;20485;-69
2022/06/27 07:34:58;;;;;;;1.77;1.63;;;23.10;99.90;;;;;;5075156;28;20852;-70
2022/06/27 07:37:25;;;;;;;2.23;2.03;;;23.20;99.90;;;;;;5075452;28;20417;-71
2022/06/27 07:39:50;;;;;;;2.10;1.90;;;23.20;99.90;;;;;;5057359;28;20512;-70
2022/06/27 07:42:16;;;;;;;1.90;1.50;;;23.30;99.90;;;;;;5056706;28;20425;-72
2022/06/27 07:44:42;;;;;;;2.37;2.17;;;23.50;99.90;;;;;;5053990;28;20178;-72
2022/06/27 07:47:08;;;;;;;2.63;2.43;;;23.80;99.90;;;;;;5055476;28;20163;-72
2022/06/27 07:49:33;;;;;;;3.23;2.67;;;24.10;99.90;;;;;;5070250;28;20435;-68
2022/06/27 07:51:59;;;;;;;1.97;1.70;;;24.40;99.90;;;;;;5075248;28;20171;-68
2022/06/27 07:54:26;;;;;;;2.00;1.90;;;24.60;99.90;;;;;;5073626;28;20229;-70
2022/06/27 07:56:53;;;;;;;3.30;3.10;;;24.80;99.90;;;;;;5074645;28;20158;-71
2022/06/27 07:59:19;;;;;;;2.23;1.27;;;24.90;99.90;;;;;;5060574;28;20442;-70
2022/06/27 08:01:45;;;;;;;2.23;2.03;;;25.00;99.90;;;;;;5055070;28;20459;-70
2022/06/27 08:04:12;;;;;;;2.30;2.10;;;25.00;99.90;;;;;;5054774;28;20955;-71
2022/06/27 08:06:37;;;;;;;3.87;2.67;;;24.90;99.90;;;;;;5054976;28;20621;-69
2022/06/27 08:09:05;;;;;;;1.93;1.77;;;24.70;99.90;;;;;;5066374;28;20449;-70
2022/06/27 08:11:34;;;;;;;1.67;1.50;;;24.60;99.90;;;;;;5074775;28;20537;-71
2022/06/27 08:14:03;;;;;;;1.77;1.50;;;24.40;99.90;;;;;;5074818;28;20478;-72
2022/06/27 08:16:30;;;;;;;2.30;1.83;;;24.40;99.90;;;;;;5074854;28;20393;-72
2022/06/27 08:18:56;;;;;;;1.77;1.60;;;24.40;99.90;;;;;;5064066;28;20441;-72
2022/06/27 08:21:25;;;;;;;3.40;2.80;;;24.40;99.90;;;;;;5054674;28;20433;-72
2022/06/27 08:23:52;;;;;;;2.23;1.83;;;24.30;99.90;;;;;;5055041;28;20410;-72
2022/06/27 08:26:18;;;;;;;2.93;2.73;;;24.10;99.90;;;;;;5054598;28;20925;-69
2022/06/27 08:28:47;;;;;;;1.80;1.67;;;24.00;99.90;;;;;;5062345;28;20925;-68
2022/06/27 08:31:13;;;;;;;2.07;1.87;;;23.80;99.90;;;;;;5074107;28;20439;-69
2022/06/27 08:33:40;;;;;;;4.10;2.73;;;23.60;99.90;;;;;;5073450;28;20447;-70
2022/06/27 08:36:07;;;;;;;2.33;2.13;;;23.50;99.90;;;;;;5074001;28;20397;-70
2022/06/27 08:38:39;;;;;;;2.60;2.20;;;23.30;99.90;;;;;;5066958;28;20516;-70
2022/06/27 08:41:06;;;;;;;2.53;2.20;;;23.10;99.90;;;;;;5053951;28;20393;-70
2022/06/27 08:43:31;;;;;;;2.17;1.97;;;23.00;99.90;;;;;;5054033;28;20402;-70
2022/06/27 08:45:58;;;;;;;2.80;2.50;;;22.80;99.90;;;;;;5053764;28;20492;-70
2022/06/27 08:48:23;;;;;;;2.40;1.80;;;22.70;99.90;;;;;;5058913;28;20190;-70
2022/06/27 08:50:50;;;;;;;3.10;2.60;;;22.60;99.90;;;;;;5073969;28;20401;-70
2022/06/27 08:53:17;;;;;;;2.60;2.40;;;22.50;99.90;;;;;;5074466;28;20170;-72
2022/06/27 08:55:46;;;;;;;2.73;2.53;;;22.30;99.90;;;;;;5073966;28;20460;-72
2022/06/27 08:58:12;;;;;;;3.20;2.23;;;22.20;99.90;;;;;;5070601;28;20440;-72
2022/06/27 09:00:40;;;;;;;2.30;2.07;;;22.20;99.90;;;;;;5053975;28;20413;-73
2022/06/27 09:03:07;;;;;;;2.60;2.40;;;22.10;99.90;;;;;;5054682;28;20414;-71
2022/06/27 09:05:33;;;;;;;2.40;2.00;;;22.10;99.90;;;;;;5055769;28;20428;-70
2022/06/27 09:08:04;;;;;;;3.17;2.30;;;22.10;99.90;;;;;;5054757;28;20425;-71
2022/06/27 09:10:31;;;;;;;2.50;2.13;;;22.10;99.90;;;;;;5073674;28;20973;-72
2022/06/27 09:13:10;;;;;;;2.43;2.20;;;22.10;99.90;;;;;;5073850;28;20780;-71
2022/06/27 09:15:55;;;;;;;2.53;2.33;;;22.20;99.90;;;;;;5072801;28;20440;-71
2022/06/27 09:18:36;;;;;;;3.00;2.30;;;22.30;99.90;;;;;;5069924;28;20468;-71
2022/06/27 09:21:09;;;;;;;2.40;1.93;;;22.50;99.90;;;;;;5053393;28;20397;-71
2022/06/27 09:23:54;;;;;;;1.90;1.70;;;22.70;99.90;;;;;;5052059;28;20409;-72
2022/06/27 09:26:31;;;;;;;2.33;1.73;;;23.00;99.90;;;;;;5053036;28;21350;-72
2022/06/27 09:29:06;;;;;;;2.70;2.10;;;23.20;99.90;;;;;;5061039;28;20961;-73
2022/06/27 09:31:42;;;;;;;2.43;2.10;;;23.40;99.90;;;;;;5073478;28;20408;-71
2022/06/27 09:34:21;;;;;;;2.70;2.50;;;23.50;99.90;;;;;;5072995;28;20526;-71
2022/06/27 09:36:49;;;;;;;3.10;2.43;;;23.60;99.90;;;;;;5073028;28;20458;-72
2022/06/27 09:39:24;;;;;;;2.87;2.47;;;23.70;99.90;;;;;;5062717;28;20839;-72
2022/06/27 09:41:58;;;;;;;2.73;2.53;;;23.80;99.90;;;;;;5052978;28;20405;-72
2022/06/27 09:44:30;;;;;;;2.87;2.63;;;23.90;99.90;;;;;;5051180;28;20421;-70
2022/06/27 09:47:18;;;;;;;2.50;2.30;;;24.00;99.90;;;;;;5052737;28;20404;-73
2022/06/27 09:49:46;;;;;;;2.70;2.50;;;24.20;99.90;;;;;;5066131;28;20470;-72
2022/06/27 09:52:17;;;;;;;3.97;2.60;;;24.20;99.90;;;;;;5072642;28;20457;-72
2022/06/27 09:54:46;;;;;;;2.20;1.93;;;24.30;99.90;;;;;;5072096;28;20854;-72
2022/06/27 09:57:12;;;;;;;3.07;2.17;;;24.40;99.90;;;;;;5072557;28;20405;-73
2022/06/27 09:59:39;;;;;;;1.90;1.70;;;24.80;99.90;;;;;;5058190;28;20445;-72
2022/06/27 10:02:05;;;;;;;2.23;2.03;;;25.50;99.90;;;;;;5052582;28;20397;-72
2022/06/27 10:04:32;;;;;;;3.50;3.13;;;26.80;99.90;;;;;;5052206;28;20484;-73
2022/06/27 10:07:00;;;;;;;2.23;2.03;;;27.80;99.90;;;;;;5052390;28;20437;-73
2022/06/27 10:09:28;;;;;;;2.30;2.10;;;28.80;99.90;;;;;;5062622;28;20501;-72
2022/06/27 10:12:34;;;;;;;2.30;2.10;;;30.00;99.90;;;;;;5072233;28;20400;-73
2022/06/27 10:15:09;;;;;;;3.03;2.77;;;31.00;99.90;;;;;;5071829;28;20530;-73
2022/06/27 10:17:44;;;;;;;2.20;2.00;;;31.40;99.90;;;;;;5060385;28;20486;-71
2022/06/27 10:20:21;;;;;;;2.73;2.53;;;31.20;99.90;;;;;;5051975;28;20404;-73
2022/06/27 10:22:48;;;;;;;2.83;2.63;;;30.90;99.90;;;;;;5050786;28;20420;-73
2022/06/27 10:25:26;;;;;;;1.90;1.70;;;30.50;99.90;;;;;;5051669;28;20405;-72
2022/06/27 10:28:10;;;;;;;2.40;2.20;;;30.00;99.90;;;;;;5064103;28;20440;-71
2022/06/27 10:30:45;;;;;;;2.07;1.87;;;29.60;99.90;;;;;;5071999;28;20392;-71
2022/06/27 10:33:25;;;;;;;3.87;3.00;;;29.20;99.90;;;;;;5072376;28;20968;-71
2022/06/27 10:35:57;;;;;;;3.30;2.63;;;28.90;99.90;;;;;;5071617;28;20451;-73
2022/06/27 10:38:34;;;;;;;2.87;2.67;;;28.60;99.90;;;;;;5055000;28;20944;-73
2022/06/27 10:41:02;;;;;;;4.60;4.20;;;28.40;99.90;;;;;;5051655;28;20411;-72
2022/06/27 10:43:49;;;;;;;4.23;3.83;;;28.10;99.90;;;;;;5051627;28;20963;-70
2022/06/27 10:46:14;;;;;;;4.67;4.00;;;27.80;99.90;;;;;;5051642;28;20405;-72
2022/06/27 10:48:52;;;;;;;6.30;3.90;;;27.60;99.90;;;;;;5068750;28;20515;-72
2022/06/27 10:51:18;;;;;;;5.10;3.97;;;27.40;99.90;;;;;;5071927;28;20166;-73
2022/06/27 10:53:45;;;;;;;3.93;3.37;;;27.30;99.90;;;;;;5057959;28;20429;-73
2022/06/27 10:56:31;;;;;;;3.50;2.70;;;27.20;99.90;;;;;;5051390;28;20167;-72
2022/06/27 10:58:58;;;;;;;3.50;3.13;;;27.10;99.90;;;;;;5051942;28;20830;-72
2022/06/27 11:01:23;;;;;;;2.80;2.30;;;27.10;99.90;;;;;;5051888;28;20441;-73
2022/06/27 11:03:50;;;;;;;4.70;3.70;;;27.20;99.90;;;;;;5052290;28;20507;-72
2022/06/27 11:06:16;;;;;;;4.80;3.07;;;27.30;99.90;;;;;;5051598;28;20159;-72
2022/06/27 11:08:44;;;;;;;3.80;3.07;;;27.40;99.90;;;;;;5069944;28;20490;-73
2022/06/27 11:11:16;;;;;;;2.87;2.60;;;27.40;99.90;;;;;;5071999;28;20165;-72
2022/06/27 11:13:48;;;;;;;3.10;2.37;;;27.30;99.90;;;;;;5071727;28;20822;-72
2022/06/27 11:16:19;;;;;;;5.00;3.47;;;27.20;99.90;;;;;;5071943;28;20404;-72
2022/06/27 11:18:47;;;;;;;3.83;3.20;;;27.20;99.90;;;;;;5071286;28;20844;-72
2022/06/27 11:21:18;;;;;;;3.10;2.40;;;27.20;99.90;;;;;;5071467;28;20411;-72
2022/06/27 11:23:57;;;;;;;2.83;2.63;;;27.10;99.90;;;;;;5071775;28;20400;-72
2022/06/27 11:26:26;;;;;;;3.37;2.70;;;27.00;99.90;;;;;;5071201;28;20504;-72
2022/06/27 11:34:21;;;;;;;2.30;2.10;;;26.90;99.90;;;;;;5070562;28;20443;-72
2022/06/27 11:36:46;;;;;;;2.87;2.40;;;26.90;99.90;;;;;;5069395;28;20428;-72
2022/06/27 11:39:14;;;;;;;3.57;3.23;;;27.00;99.90;;;;;;5070685;28;20198;-73
2022/06/27 11:41:40;;;;;;;2.63;2.43;;;27.10;99.90;;;;;;5071250;28;20576;-71
2022/06/27 11:44:12;;;;;;;3.23;2.57;;;27.30;99.90;;;;;;5071239;28;20767;-72
2022/06/27 11:46:40;;;;;;;3.50;3.20;;;27.70;99.90;;;;;;5067216;28;20843;-71
2022/06/27 11:49:09;;;;;;;2.90;2.70;;;28.40;99.90;;;;;;5051073;28;20854;-73
2022/06/27 11:51:40;;;;;;;2.20;1.80;;;29.40;99.90;;;;;;5051065;28;20485;-73
2022/06/27 11:54:12;;;;;;;2.53;2.33;;;30.60;99.90;;;;;;5050863;28;20468;-71
2022/06/27 11:56:43;;;;;;;2.67;2.40;;;31.50;99.90;;;;;;5052148;28;20401;-73
2022/06/27 11:59:11;;;;;;;2.63;2.20;;;32.30;99.90;;;;;;5049736;28;20811;-72
2022/06/27 12:01:52;;;;;;;4.00;2.90;;;33.20;99.90;;;;;;5051124;28;20402;-72
2022/06/27 12:04:20;;;;;;;3.60;3.30;;;33.90;99.90;;;;;;5050615;28;20437;-72
2022/06/27 12:06:48;;;;;;;2.50;2.30;;;34.50;97.20;;;;;;5052481;28;20448;-73
2022/06/27 12:09:15;;;;;;;3.67;3.37;;;34.60;92.30;;;;;;5072226;28;20416;-72
2022/06/27 12:12:00;;;;;;;3.03;2.73;;;34.50;85.90;;;;;;5072834;28;20491;-69
2022/06/27 12:14:28;;;;;;;3.33;3.03;;;34.20;77.90;;;;;;5074079;28;20452;-70
2022/06/27 12:16:56;;;;;;;3.83;2.83;;;33.70;72.90;;;;;;5074382;28;20961;-72
2022/06/27 12:19:22;;;;;;;4.70;3.87;;;33.30;70.30;;;;;;5074397;28;20443;-73
2022/06/27 12:21:48;;;;;;;3.03;2.73;;;32.80;68.80;;;;;;5069020;28;21044;-75
2022/06/27 12:24:15;;;;;;;2.73;2.53;;;32.20;69.20;;;;;;5054084;28;20428;-69
2022/06/27 12:26:41;;;;;;;2.70;2.10;;;31.70;69.70;;;;;;5054343;28;20199;-72
2022/06/27 12:29:07;;;;;;;2.80;2.60;;;31.30;70.20;;;;;;5054137;28;20468;-72
2022/06/27 12:31:34;;;;;;;2.27;2.10;;;30.90;70.90;;;;;;5054015;28;20429;-73
2022/06/27 12:33:59;;;;;;;4.07;3.30;;;30.70;72.60;;;;;;5074040;28;20296;-72
2022/06/27 12:36:25;;;;;;;2.97;2.60;;;30.70;74.10;;;;;;5072386;28;20479;-72
2022/06/27 12:38:51;;;;;;;3.00;2.20;;;31.10;76.20;;;;;;5073939;28;20680;-72
2022/06/27 12:41:17;;;;;;;4.50;2.40;;;31.60;74.90;;;;;;5074107;28;20255;-73
2022/06/27 12:43:44;;;;;;;2.30;2.10;;;32.00;74.80;;;;;;5054646;28;20175;-72
2022/06/27 12:46:11;;;;;;;2.63;2.30;;;32.20;74.50;;;;;;5053717;28;20497;-72
2022/06/27 12:48:37;;;;;;;2.40;2.20;;;32.40;74.50;;;;;;5053860;28;20436;-73
2022/06/27 12:51:03;;;;;;;3.63;2.50;;;32.50;74.10;;;;;;5053802;28;20405;-73
2022/06/27 12:53:29;;;;;;;2.63;2.30;;;32.60;74.70;;;;;;5070459;28;20511;-73
2022/06/27 12:55:55;;;;;;;2.20;2.00;;;32.70;73.60;;;;;;5072540;28;20452;-73
2022/06/27 12:58:21;;;;;;;2.40;2.17;;;33.10;73.70;;;;;;5073552;28;20182;-72